Tolna, North Dakota
Current Conditions -  °F | °C
As of 10:35 PM on Monday 22 Dec 2014 (Local Time) from KDVL Reporting Station
Overcast Overcast  
Wind Chill: 23°   Ceiling: 500
Heat Index: 32°   Visibility: 4mi
Dew Point: 30°   Wind: 13mph
Humidity: 93%   Direction: 20°NNE
Pressure: 29.75"   Gusts: NA
Location:  47.83°N, 98.44°W
Report Text: KDVL 230435Z AUTO 02011KT 4SM OVC005 00/M01 A2975 RMK AO1
Loading
Personal Weather Stations






























Interactive Weather Map New forecast layout! Learn more

10-Day Weather Forecast

Advertisements
Track Severe Weather on mobile